EDT,Max TemperatureF,Mean TemperatureF,Min TemperatureF,Max Dew PointF,MeanDew PointF,Min DewpointF,Max Humidity, Mean Humidity, Min Humidity, Max Sea Level PressureIn, Mean Sea Level PressureIn, Min Sea Level PressureIn, Max VisibilityMiles, Mean VisibilityMiles, Min VisibilityMiles, Max Wind SpeedMPH, Mean Wind SpeedMPH, Max Gust SpeedMPH,PrecipitationIn, CloudCover, Events, WindDirDegrees
2013-9-1,82,76,71,73,70,66,89,82,69,29.89,29.86,29.81,10,10,8,12,3,16,0.04,5,Rain,166
2013-9-2,80,76,73,73,72,70,94,88,71,29.87,29.80,29.73,10,8,2,9,5,,0.14,6,Rain,162
2013-9-3,82,74,64,70,64,55,96,77,58,29.83,29.76,29.72,10,9,2,10,3,,0.00,3,,280
2013-9-4,82,71,60,57,54,50,83,61,33,29.94,29.89,29.82,10,10,10,14,7,21,0.00,0,,290
2013-9-5,73,62,51,61,50,39,88,64,30,30.17,29.99,29.88,10,10,6,13,5,18,0.02,3,Rain,342
2013-9-6,71,56,44,45,39,33,82,55,26,30.26,30.19,30.11,10,10,10,9,3,,0.00,0,,277
2013-9-7,80,64,48,55,48,44,86,56,31,30.10,29.99,29.87,10,10,10,8,2,,0.00,2,Rain,237
2013-9-8,75,64,51,58,49,38,93,61,31,30.12,29.88,29.78,10,10,8,16,5,26,0.01,3,Rain,320
2013-9-9,71,57,43,49,41,36,86,57,30,30.25,30.19,30.13,10,10,10,9,4,18,0.00,0,,199
2013-9-10,79,68,59,69,62,50,93,79,65,30.15,30.09,30.04,10,9,4,10,5,20,0.09,6,Rain,178
2013-9-11,96,80,66,75,68,64,100,79,41,30.08,30.04,29.96,10,5,0,22,3,36,0.02,1,Fog-Rain-Thunderstorm,226
2013-9-12,89,78,68,73,68,64,94,76,52,29.95,29.79,29.68,10,8,2,17,5,28,0.49,4,Rain-Thunderstorm,194
2013-9-13,81,70,60,66,62,52,94,78,54,29.79,29.66,29.60,10,10,9,14,4,20,0.05,4,Rain,309
2013-9-14,68,60,54,52,49,48,90,69,52,30.07,29.93,29.80,10,10,10,12,7,18,0.02,4,,315
2013-9-15,72,58,46,51,46,40,93,66,32,30.18,30.12,30.06,10,10,10,9,2,,0.01,0,,263
2013-9-16,70,58,45,51,47,35,81,65,47,30.28,30.10,30.04,10,10,10,13,6,20,0.00,3,Rain,321
2013-9-17,64,50,37,44,37,32,97,63,35,30.45,30.38,30.30,10,10,10,15,5,18,0.00,0,,355
2013-9-18,75,60,44,49,42,35,86,60,24,30.35,30.25,30.15,10,10,10,9,4,,0.00,0,,273
2013-9-19,82,66,50,53,48,44,83,57,29,30.16,30.11,30.05,10,10,10,8,5,,0.00,0,,304
2013-9-20,81,66,52,54,51,47,93,63,31,30.10,30.05,30.01,10,10,10,8,2,,0.00,0,,153
2013-9-21,77,62,48,64,55,45,100,79,53,30.04,29.91,29.73,10,9,1,18,4,29,0.01,5,Rain,169
2013-9-22,70,62,53,66,54,41,94,73,44,29.87,29.70,29.61,10,8,2,17,8,31,0.73,5,Rain,282
2013-9-23,64,54,43,42,39,35,86,61,40,30.04,29.95,29.87,10,10,10,15,6,24,0.00,1,,326
2013-9-24,69,56,43,44,39,37,86,59,31,30.02,29.93,29.84,10,10,10,17,6,23,0.00,1,,320
2013-9-25,72,59,46,49,45,41,86,63,43,30.01,29.93,29.88,10,10,10,12,5,,0.00,3,,338
2013-9-26,69,61,53,51,47,43,81,65,42,30.15,30.06,30.01,10,10,10,6,2,,0.00,5,,1
2013-9-27,66,59,50,52,49,48,93,72,54,30.29,30.23,30.16,10,10,10,8,3,,0.00,6,,354
2013-9-28,75,59,45,53,49,43,93,72,44,30.35,30.31,30.29,10,10,10,8,2,,0.00,1,,45
2013-9-29,70,56,43,52,44,37,93,72,33,30.28,30.21,30.14,10,10,9,9,1,,0.01,0,,105
2013-9-30,72,56,39,50,44,37,93,72,36,30.14,30.06,29.99,10,10,10,7,1,,0.00,0,,24